createdAt,value
2019-03-10T00:00:25.002Z,99692
2019-03-10T00:05:25.055Z,99686
2019-03-10T00:10:25.101Z,99684
2019-03-10T00:15:25.030Z,99690
2019-03-10T00:20:25.015Z,99693
2019-03-10T00:25:25.009Z,99698
2019-03-10T00:30:25.017Z,99723
2019-03-10T00:35:25.022Z,99725
2019-03-10T00:40:24.993Z,99739
2019-03-10T00:45:25.013Z,99739
2019-03-10T00:50:25.022Z,99726
2019-03-10T00:55:25.023Z,99733
2019-03-10T01:00:25.053Z,99723
2019-03-10T01:05:25.026Z,99713
2019-03-10T01:10:25.022Z,99712
2019-03-10T01:15:25.033Z,99718
2019-03-10T01:20:25.032Z,99705
2019-03-10T01:25:25.051Z,99701
2019-03-10T01:30:25.036Z,99696
2019-03-10T01:35:25.055Z,99703
2019-03-10T01:40:25.045Z,99698
2019-03-10T01:45:25.006Z,99693
2019-03-10T01:50:25.061Z,99669
2019-03-10T01:55:25.051Z,99673
2019-03-10T02:00:25.017Z,99677
2019-03-10T02:05:25.095Z,99648
2019-03-10T02:10:25.056Z,99647
2019-03-10T02:15:25.047Z,99644
2019-03-10T02:20:25.025Z,99641
2019-03-10T02:25:25.070Z,99641
2019-03-10T02:30:25.081Z,99633
2019-03-10T02:35:25.095Z,99623
2019-03-10T02:40:25.080Z,99623
2019-03-10T02:45:25.057Z,99594
2019-03-10T02:50:25.083Z,99599
2019-03-10T02:55:25.073Z,99583
2019-03-10T03:00:25.082Z,99593
2019-03-10T03:05:25.090Z,99572
2019-03-10T03:10:25.077Z,99567
2019-03-10T03:15:25.109Z,99562
2019-03-10T03:20:25.075Z,99547
2019-03-10T03:25:25.111Z,99545
2019-03-10T03:30:25.127Z,99548
2019-03-10T03:35:25.092Z,99544
2019-03-10T03:40:25.097Z,99547
2019-03-10T03:45:25.105Z,99539
2019-03-10T03:50:25.109Z,99541
2019-03-10T03:55:25.114Z,99537
2019-03-10T04:00:25.104Z,99525
2019-03-10T04:05:25.140Z,99512
2019-03-10T04:10:25.079Z,99511
2019-03-10T04:15:25.187Z,99509
2019-03-10T04:20:25.141Z,99490
2019-03-10T04:25:25.129Z,99490
2019-03-10T04:30:25.130Z,99487
2019-03-10T04:35:25.077Z,99483
2019-03-10T04:40:25.140Z,99478
2019-03-10T04:45:25.210Z,99468
2019-03-10T04:50:25.127Z,99464
2019-03-10T04:55:25.122Z,99480
2019-03-10T05:00:25.098Z,99460
2019-03-10T05:05:25.136Z,99456
2019-03-10T05:10:25.348Z,99453
2019-03-10T05:15:25.129Z,99457
2019-03-10T05:20:25.141Z,99448
2019-03-10T05:25:25.113Z,99433
2019-03-10T05:30:25.143Z,99436
2019-03-10T05:35:25.165Z,99420
2019-03-10T05:40:25.157Z,99418
2019-03-10T05:45:25.151Z,99395
2019-03-10T05:50:25.148Z,99399
2019-03-10T05:55:25.135Z,99389
2019-03-10T06:00:25.160Z,99385
2019-03-10T06:05:25.155Z,99371
2019-03-10T06:10:25.181Z,99357
2019-03-10T06:15:25.165Z,99352
2019-03-10T06:20:25.172Z,99339
2019-03-10T06:25:25.135Z,99318
2019-03-10T06:30:25.176Z,99319
2019-03-10T06:35:25.186Z,99306
2019-03-10T06:40:31.916Z,99292
2019-03-10T06:45:25.150Z,99283
2019-03-10T06:50:25.186Z,99266
2019-03-10T06:55:25.191Z,99257
2019-03-10T07:00:25.177Z,99261
2019-03-10T07:05:25.196Z,99251
2019-03-10T07:10:25.154Z,99256
2019-03-10T07:15:25.192Z,99262
2019-03-10T07:20:25.158Z,99243
2019-03-10T07:25:25.181Z,99250
2019-03-10T07:30:25.199Z,99232
2019-03-10T07:35:25.198Z,99237
2019-03-10T07:40:25.156Z,99241
2019-03-10T07:45:25.215Z,99220
2019-03-10T07:50:25.198Z,99217
2019-03-10T07:55:25.216Z,99216
2019-03-10T08:00:25.215Z,99198
2019-03-10T08:05:25.217Z,99205
2019-03-10T08:10:25.244Z,99189
2019-03-10T08:15:25.182Z,99187
2019-03-10T08:20:25.210Z,99173
2019-03-10T08:25:25.238Z,99158
2019-03-10T08:30:25.218Z,99154
2019-03-10T08:35:25.219Z,99149
2019-03-10T08:40:25.228Z,99143
2019-03-10T08:45:25.247Z,99113
2019-03-10T08:50:25.222Z,99120
2019-03-10T08:55:25.226Z,99099
2019-03-10T09:00:25.236Z,99095
2019-03-10T09:05:25.237Z,99091
2019-03-10T09:10:25.251Z,99079
2019-03-10T09:15:25.243Z,99075
2019-03-10T09:20:25.257Z,99075
2019-03-10T09:25:25.217Z,99054
2019-03-10T09:30:25.254Z,99054
2019-03-10T09:35:25.255Z,99028
2019-03-10T09:40:25.250Z,99020
2019-03-10T09:45:25.284Z,99000
2019-03-10T09:50:25.234Z,98996
2019-03-10T09:55:25.248Z,98967
2019-03-10T10:00:25.252Z,98967
2019-03-10T10:05:25.254Z,98952
2019-03-10T10:10:25.278Z,98921
2019-03-10T10:15:25.271Z,98914
2019-03-10T10:20:26.760Z,98899
2019-03-10T10:25:25.238Z,98891
2019-03-10T10:30:25.272Z,98883
2019-03-10T10:35:25.237Z,98860
2019-03-10T10:40:25.277Z,98845
2019-03-10T10:45:25.270Z,98822
2019-03-10T10:50:25.291Z,98791
2019-03-10T10:55:25.306Z,98785
2019-03-10T11:00:25.285Z,98803
2019-03-10T11:05:25.281Z,98767
2019-03-10T11:10:25.258Z,98751
2019-03-10T11:15:25.292Z,98737
2019-03-10T11:20:25.262Z,98722
2019-03-10T11:25:25.300Z,98686
2019-03-10T11:30:25.347Z,98675
2019-03-10T11:35:25.304Z,98659
2019-03-10T11:40:25.305Z,98631
2019-03-10T11:45:25.309Z,98610
2019-03-10T11:50:25.320Z,98605
2019-03-10T11:55:25.385Z,98602
2019-03-10T12:00:25.303Z,98578
2019-03-10T12:05:25.312Z,98587
2019-03-10T12:10:25.285Z,98563
2019-03-10T12:15:25.274Z,98531
2019-03-10T12:20:25.329Z,98531
2019-03-10T12:25:25.316Z,98458
2019-03-10T12:30:25.329Z,98515
2019-03-10T12:35:33.801Z,98486
2019-03-10T12:40:25.328Z,98478
2019-03-10T12:45:25.343Z,98446
2019-03-10T12:50:25.364Z,98449
2019-03-10T12:55:25.323Z,98442
2019-03-10T13:00:25.354Z,98436
2019-03-10T13:05:25.667Z,98416
2019-03-10T13:10:25.338Z,98399
2019-03-10T13:15:25.342Z,98407
2019-03-10T13:20:28.386Z,98408
2019-03-10T13:25:25.314Z,98373
2019-03-10T13:30:25.358Z,98349
2019-03-10T13:35:25.359Z,98338
2019-03-10T13:40:25.347Z,98330
2019-03-10T13:45:25.357Z,98326
2019-03-10T13:50:25.373Z,98329
2019-03-10T13:55:25.368Z,98302
2019-03-10T14:00:25.381Z,98292
2019-03-10T14:05:25.363Z,98263
2019-03-10T14:10:25.370Z,98262
2019-03-10T14:15:25.344Z,98255
2019-03-10T14:20:25.375Z,98265
2019-03-10T14:25:25.376Z,98262
2019-03-10T14:30:25.368Z,98266
2019-03-10T14:35:25.382Z,98263
2019-03-10T14:40:25.395Z,98249
2019-03-10T14:45:25.386Z,98257
2019-03-10T14:50:25.388Z,98241
2019-03-10T14:55:25.385Z,98225
2019-03-10T15:00:25.399Z,98228
2019-03-10T15:05:25.393Z,98221
2019-03-10T15:10:25.414Z,98204
2019-03-10T15:15:25.408Z,98195
2019-03-10T15:20:25.409Z,98201
2019-03-10T15:25:25.558Z,98195
2019-03-10T15:30:25.474Z,98180
2019-03-10T15:35:25.413Z,98176
2019-03-10T15:40:25.424Z,98142
2019-03-10T15:45:27.713Z,98171
2019-03-10T15:50:25.424Z,98145
2019-03-10T15:55:25.483Z,98135
2019-03-10T16:00:25.425Z,98167
2019-03-10T16:05:25.423Z,98171
2019-03-10T16:10:25.446Z,98181
2019-03-10T16:15:25.391Z,98178
2019-03-10T16:20:25.438Z,98174
2019-03-10T16:25:25.451Z,98172
2019-03-10T16:30:25.432Z,98162
2019-03-10T16:35:25.448Z,98181
2019-03-10T16:40:25.621Z,98153
2019-03-10T16:45:25.439Z,98186
2019-03-10T16:50:25.447Z,98176
2019-03-10T16:55:25.461Z,98195
2019-03-10T17:00:25.459Z,98199
2019-03-10T17:05:25.448Z,98191
2019-03-10T17:10:25.465Z,98203
2019-03-10T17:15:25.445Z,98207
2019-03-10T17:20:25.526Z,98209
2019-03-10T17:25:25.443Z,98206
2019-03-10T17:30:25.461Z,98208
2019-03-10T17:35:25.434Z,98220
2019-03-10T17:40:25.465Z,98232
2019-03-10T17:45:25.462Z,98255
2019-03-10T17:50:25.467Z,98265
2019-03-10T17:55:25.495Z,98255
2019-03-10T18:00:25.472Z,98214
2019-03-10T18:05:25.465Z,98230
2019-03-10T18:10:25.499Z,98271
2019-03-10T18:15:25.478Z,98250
2019-03-10T18:20:25.494Z,98291
2019-03-10T18:25:25.482Z,98288
2019-03-10T18:30:25.479Z,98298
2019-03-10T18:35:25.492Z,98274
2019-03-10T18:40:25.494Z,98267
2019-03-10T18:45:25.495Z,98271
2019-03-10T18:50:25.499Z,98274
2019-03-10T18:55:25.496Z,98335
2019-03-10T19:00:25.504Z,98296
2019-03-10T19:05:25.503Z,98347
2019-03-10T19:10:25.556Z,98305
2019-03-10T19:15:25.469Z,98360
2019-03-10T19:20:25.496Z,98360
2019-03-10T19:25:25.525Z,98383
2019-03-10T19:30:25.504Z,98397
2019-03-10T19:35:25.514Z,98382
2019-03-10T19:40:25.481Z,98377
2019-03-10T19:45:25.513Z,98422
2019-03-10T19:50:27.171Z,98418
2019-03-10T19:55:25.539Z,98423
2019-03-10T20:00:25.527Z,98502
2019-03-10T20:05:25.487Z,98645
2019-03-10T20:10:25.524Z,98664
2019-03-10T20:15:25.541Z,98735
2019-03-10T20:20:25.526Z,98804
2019-03-10T20:25:25.493Z,98902
2019-03-10T20:30:25.537Z,98933
2019-03-10T20:35:25.552Z,98971
2019-03-10T20:40:25.596Z,99004
2019-03-10T20:45:25.534Z,99085
2019-03-10T20:50:25.543Z,99115
2019-03-10T20:55:25.546Z,99153
2019-03-10T21:00:25.568Z,99170
2019-03-10T21:05:25.551Z,99223
2019-03-10T21:10:25.712Z,99242
2019-03-10T21:15:26.451Z,99260
2019-03-10T21:20:25.520Z,99283
2019-03-10T21:25:25.550Z,99325
2019-03-10T21:30:25.527Z,99341
2019-03-10T21:35:25.559Z,99359
2019-03-10T21:40:25.562Z,99362
2019-03-10T21:45:25.578Z,99391
2019-03-10T21:50:25.576Z,99399
2019-03-10T21:55:25.542Z,99411
2019-03-10T22:00:25.577Z,99421
2019-03-10T22:05:25.600Z,99438
2019-03-10T22:10:27.914Z,99447
2019-03-10T22:15:25.579Z,99443
2019-03-10T22:20:25.579Z,99455
2019-03-10T22:25:25.583Z,99464
2019-03-10T22:30:25.606Z,99477
2019-03-10T22:35:25.589Z,99478
2019-03-10T22:40:25.600Z,99493
2019-03-10T22:45:25.602Z,99500
2019-03-10T22:50:25.582Z,99510
2019-03-10T22:55:25.607Z,99497
2019-03-10T23:00:25.591Z,99518
2019-03-10T23:05:25.609Z,99514
2019-03-10T23:10:25.569Z,99529
2019-03-10T23:15:25.599Z,99529
2019-03-10T23:20:25.607Z,99533
2019-03-10T23:25:25.614Z,99537
2019-03-10T23:30:25.618Z,99536
2019-03-10T23:35:25.603Z,99548
2019-03-10T23:40:25.618Z,99554
2019-03-10T23:45:25.615Z,99557
2019-03-10T23:50:25.612Z,99551
2019-03-10T23:55:25.631Z,99565
